createdAt,value
2023-02-01T00:00:40.952Z,17.80
2023-02-01T00:03:09.710Z,17.80
2023-02-01T00:05:37.186Z,17.80
2023-02-01T00:08:04.873Z,17.80
2023-02-01T00:10:33.223Z,17.80
2023-02-01T00:13:00.949Z,17.80
2023-02-01T00:15:28.601Z,17.90
2023-02-01T00:17:57.273Z,17.90
2023-02-01T00:20:24.759Z,17.90
2023-02-01T00:22:52.302Z,17.90
2023-02-01T00:25:19.780Z,18.00
2023-02-01T00:27:50.396Z,18.00
2023-02-01T00:30:20.090Z,18.00
2023-02-01T00:32:47.768Z,18.10
2023-02-01T00:35:15.285Z,18.20
2023-02-01T00:37:44.534Z,18.20
2023-02-01T00:40:13.040Z,18.20
2023-02-01T00:42:41.358Z,18.30
2023-02-01T00:45:09.484Z,18.40
2023-02-01T00:47:37.877Z,18.40
2023-02-01T00:50:06.483Z,18.50
2023-02-01T00:52:34.237Z,18.50
2023-02-01T00:55:03.053Z,18.60
2023-02-01T00:57:32.130Z,18.70
2023-02-01T01:00:02.620Z,18.80
2023-02-01T01:02:30.551Z,18.80
2023-02-01T01:04:59.731Z,18.90
2023-02-01T01:07:28.724Z,19.00
2023-02-01T01:09:56.571Z,19.00
2023-02-01T01:12:24.576Z,19.10
2023-02-01T01:14:52.236Z,19.20
2023-02-01T01:17:20.599Z,19.20
2023-02-01T01:19:48.892Z,19.30
2023-02-01T01:22:18.372Z,19.40
2023-02-01T01:24:45.904Z,19.40
2023-02-01T01:27:14.609Z,19.50
2023-02-01T01:29:42.387Z,19.60
2023-02-01T01:32:09.921Z,19.70
2023-02-01T01:34:40.486Z,19.70
2023-02-01T01:37:10.526Z,19.80
2023-02-01T01:39:38.929Z,19.90
2023-02-01T01:42:06.543Z,20.00
2023-02-01T01:44:55.689Z,20.00
2023-02-01T01:47:25.599Z,20.20
2023-02-01T01:49:53.901Z,20.30
2023-02-01T01:52:21.708Z,20.40
2023-02-01T01:54:53.022Z,20.50
2023-02-01T01:57:41.389Z,20.60
2023-02-01T02:00:11.405Z,20.80
2023-02-01T02:02:40.221Z,20.90
2023-02-01T02:05:10.525Z,21.00
2023-02-01T02:07:41.878Z,21.10
2023-02-01T02:10:11.901Z,21.20
2023-02-01T02:12:43.804Z,21.20
2023-02-01T02:15:12.919Z,21.30
2023-02-01T02:17:40.390Z,21.50
2023-02-01T02:20:27.159Z,21.60
2023-02-01T02:23:18.551Z,21.70
2023-02-01T02:25:57.935Z,21.80
2023-02-01T02:28:38.662Z,22.00
2023-02-01T02:31:10.003Z,22.10
2023-02-01T02:33:56.862Z,22.20
2023-02-01T02:36:43.326Z,22.30
2023-02-01T02:39:53.214Z,22.30
2023-02-01T02:42:39.286Z,22.30
2023-02-01T02:45:34.692Z,22.40
2023-02-01T02:51:29.475Z,22.50
2023-02-01T02:54:22.622Z,22.60
2023-02-01T02:57:10.109Z,22.80
2023-02-01T03:00:00.861Z,22.90
2023-02-01T03:02:47.217Z,23.00
2023-02-01T03:08:02.744Z,23.20
2023-02-01T03:10:46.011Z,23.30
2023-02-01T03:13:17.265Z,23.40
2023-02-01T03:16:08.133Z,23.50
2023-02-01T03:18:48.629Z,23.60
2023-02-01T03:21:37.160Z,23.70
2023-02-01T03:24:09.047Z,23.80
2023-02-01T03:26:40.027Z,23.90
2023-02-01T03:29:11.906Z,24.00
2023-02-01T03:34:18.930Z,24.10
2023-02-01T03:36:50.402Z,24.30
2023-02-01T03:39:24.879Z,24.40
2023-02-01T03:41:57.915Z,24.50
2023-02-01T03:44:28.523Z,24.50
2023-02-01T03:47:35.555Z,24.60
2023-02-01T03:50:12.348Z,24.70
2023-02-01T03:52:50.626Z,24.80
2023-02-01T03:55:21.686Z,24.90
2023-02-01T03:57:54.767Z,25.00
2023-02-01T04:00:38.970Z,25.00
2023-02-01T04:03:17.314Z,25.10
2023-02-01T04:06:14.248Z,25.10
2023-02-01T04:08:44.147Z,25.10
2023-02-01T04:11:28.147Z,25.20
2023-02-01T04:14:11.680Z,25.20
2023-02-01T04:16:50.346Z,25.30
2023-02-01T04:19:18.657Z,25.40
2023-02-01T04:21:46.831Z,25.40
2023-02-01T04:24:15.712Z,25.50
2023-02-01T04:26:44.498Z,25.60
2023-02-01T04:29:12.532Z,25.70
2023-02-01T04:31:40.292Z,25.70
2023-02-01T04:34:08.390Z,25.80
2023-02-01T04:36:39.895Z,25.90
2023-02-01T04:39:07.928Z,25.90
2023-02-01T04:41:35.816Z,26.00
2023-02-01T04:44:04.495Z,26.10
2023-02-01T04:46:32.838Z,26.10
2023-02-01T04:49:04.383Z,26.20
2023-02-01T04:51:38.094Z,26.20
2023-02-01T04:54:07.538Z,26.30
2023-02-01T04:56:38.484Z,26.30
2023-02-01T04:59:07.524Z,26.30
2023-02-01T05:01:35.374Z,26.40
2023-02-01T05:04:03.050Z,26.40
2023-02-01T05:06:35.753Z,26.50
2023-02-01T05:09:03.777Z,26.50
2023-02-01T05:11:50.467Z,26.60
2023-02-01T05:14:19.177Z,26.60
2023-02-01T05:16:46.863Z,26.80
2023-02-01T05:19:14.800Z,26.80
2023-02-01T05:21:43.915Z,26.90
2023-02-01T05:24:20.967Z,27.00
2023-02-01T05:26:54.274Z,27.00
2023-02-01T05:29:22.112Z,27.10
2023-02-01T05:31:50.253Z,27.10
2023-02-01T05:34:18.520Z,27.10
2023-02-01T05:36:47.093Z,27.20
2023-02-01T05:39:14.719Z,27.20
2023-02-01T05:41:45.965Z,27.30
2023-02-01T05:44:14.154Z,27.20
2023-02-01T05:46:42.621Z,27.30
2023-02-01T05:49:19.734Z,27.30
2023-02-01T05:51:49.260Z,27.40
2023-02-01T05:54:16.920Z,27.50
2023-02-01T05:56:44.485Z,27.50
2023-02-01T05:59:12.206Z,27.60
2023-02-01T06:01:40.682Z,27.60
2023-02-01T06:04:08.843Z,27.60
2023-02-01T06:06:38.224Z,27.70
2023-02-01T06:09:06.162Z,27.80
2023-02-01T06:11:34.188Z,27.80
2023-02-01T06:14:01.994Z,27.90
2023-02-01T06:16:29.956Z,27.90
2023-02-01T06:18:57.994Z,28.00
2023-02-01T06:21:30.613Z,28.10
2023-02-01T06:23:59.105Z,28.20
2023-02-01T06:26:30.261Z,28.20
2023-02-01T06:28:58.181Z,28.30
2023-02-01T06:31:27.035Z,28.30
2023-02-01T06:33:55.739Z,28.30
2023-02-01T06:36:23.878Z,28.20
2023-02-01T06:38:51.444Z,28.30
2023-02-01T06:41:19.256Z,28.30
2023-02-01T06:43:48.300Z,28.30
2023-02-01T06:46:16.235Z,28.30
2023-02-01T06:48:44.814Z,28.40
2023-02-01T06:51:27.449Z,28.50
2023-02-01T06:53:55.973Z,28.60
2023-02-01T06:56:24.453Z,28.70
2023-02-01T06:58:52.134Z,28.70
2023-02-01T07:01:20.128Z,28.70
2023-02-01T07:03:54.792Z,28.70
2023-02-01T07:06:22.784Z,28.70
2023-02-01T07:08:50.441Z,28.70
2023-02-01T07:11:19.424Z,28.70
2023-02-01T07:13:48.400Z,28.80
2023-02-01T07:16:17.755Z,28.90
2023-02-01T07:18:46.113Z,28.90
2023-02-01T07:21:14.609Z,28.90
2023-02-01T07:23:43.811Z,28.90
2023-02-01T07:26:16.030Z,28.90
2023-02-01T07:28:43.885Z,28.80
2023-02-01T07:31:20.613Z,28.80
2023-02-01T07:33:52.789Z,28.80
2023-02-01T07:36:21.104Z,28.70
2023-02-01T07:38:48.723Z,28.70
2023-02-01T07:41:16.244Z,28.60
2023-02-01T07:43:44.140Z,28.70
2023-02-01T07:46:12.018Z,28.60
2023-02-01T07:48:41.287Z,28.60
2023-02-01T07:51:14.366Z,28.60
2023-02-01T07:53:42.080Z,28.60
2023-02-01T07:56:14.394Z,28.60
2023-02-01T07:58:42.226Z,28.70
2023-02-01T08:01:23.139Z,28.70
2023-02-01T08:03:52.170Z,28.80
2023-02-01T08:06:21.001Z,28.80
2023-02-01T08:08:50.700Z,28.80
2023-02-01T08:11:19.150Z,28.80
2023-02-01T08:13:47.476Z,28.80
2023-02-01T08:16:16.316Z,28.80
2023-02-01T08:18:44.403Z,28.70
2023-02-01T08:21:19.508Z,28.70
2023-02-01T08:23:47.515Z,28.70
2023-02-01T08:26:16.671Z,28.70
2023-02-01T08:28:49.456Z,28.70
2023-02-01T08:31:18.321Z,28.80
2023-02-01T08:33:49.637Z,28.80
2023-02-01T08:36:17.617Z,28.90
2023-02-01T08:38:46.556Z,29.00
2023-02-01T08:41:17.483Z,29.00
2023-02-01T08:43:48.465Z,29.00
2023-02-01T08:46:16.881Z,29.00
2023-02-01T08:48:49.746Z,29.00
2023-02-01T08:51:19.710Z,29.10
2023-02-01T08:53:48.499Z,29.10
2023-02-01T08:56:21.256Z,29.10
2023-02-01T08:58:48.865Z,29.10
2023-02-01T09:01:18.179Z,29.20
2023-02-01T09:03:47.197Z,29.20
2023-02-01T09:06:16.123Z,29.20
2023-02-01T09:08:44.913Z,29.20
2023-02-01T09:11:17.426Z,29.20
2023-02-01T09:13:51.056Z,29.20
2023-02-01T09:16:19.908Z,29.10
2023-02-01T09:18:55.934Z,29.10
2023-02-01T09:21:30.364Z,29.10
2023-02-01T09:23:57.951Z,29.10
2023-02-01T09:26:32.024Z,29.10
2023-02-01T09:29:01.388Z,29.00
2023-02-01T09:31:29.156Z,29.00
2023-02-01T09:33:57.020Z,28.90
2023-02-01T09:36:26.253Z,28.90
2023-02-01T09:38:54.544Z,28.90
2023-02-01T09:41:25.655Z,28.90
2023-02-01T09:44:04.122Z,28.90
2023-02-01T09:46:34.097Z,28.90
2023-02-01T09:49:05.148Z,28.90
2023-02-01T09:51:35.122Z,28.80
2023-02-01T09:54:07.479Z,28.80
2023-02-01T09:56:43.156Z,28.80
2023-02-01T09:59:29.364Z,28.70
2023-02-01T10:01:58.195Z,28.70
2023-02-01T10:04:25.719Z,28.70
2023-02-01T10:07:05.290Z,28.60
2023-02-01T10:09:39.096Z,28.60
2023-02-01T10:12:07.779Z,28.60
2023-02-01T10:14:58.447Z,28.60
2023-02-01T10:17:30.165Z,28.60
2023-02-01T10:19:58.973Z,28.60
2023-02-01T10:22:59.983Z,28.50
2023-02-01T10:25:29.150Z,28.50
2023-02-01T10:27:57.755Z,28.50
2023-02-01T10:30:27.182Z,28.50
2023-02-01T10:33:00.929Z,28.40
2023-02-01T10:35:38.499Z,28.40
2023-02-01T10:38:09.916Z,28.30
2023-02-01T10:40:38.638Z,28.30
2023-02-01T10:43:06.627Z,28.20
2023-02-01T10:45:35.048Z,28.10
2023-02-01T10:48:04.666Z,28.10
2023-02-01T10:50:53.764Z,28.10
2023-02-01T10:53:40.913Z,28.00
2023-02-01T10:56:09.474Z,28.00
2023-02-01T10:58:38.595Z,27.90
2023-02-01T11:01:10.173Z,27.90
2023-02-01T11:03:54.517Z,27.80
2023-02-01T11:06:25.025Z,27.70
2023-02-01T11:08:54.247Z,27.60
2023-02-01T11:11:22.846Z,27.50
2023-02-01T11:14:01.142Z,27.50
2023-02-01T11:16:36.187Z,27.40
2023-02-01T11:19:04.316Z,27.30
2023-02-01T11:21:32.287Z,27.20
2023-02-01T11:24:06.607Z,27.10
2023-02-01T11:26:35.103Z,26.90
2023-02-01T11:29:07.124Z,26.90
2023-02-01T11:31:35.548Z,26.80
2023-02-01T11:34:14.173Z,26.70
2023-02-01T11:36:42.600Z,26.60
2023-02-01T11:39:10.638Z,26.50
2023-02-01T11:41:58.209Z,26.40
2023-02-01T11:44:45.833Z,26.30
2023-02-01T11:47:25.540Z,26.30
2023-02-01T11:49:54.899Z,26.20
2023-02-01T11:52:30.906Z,26.10
2023-02-01T11:54:58.833Z,26.10
2023-02-01T11:57:41.916Z,26.00
2023-02-01T12:00:19.273Z,25.90
2023-02-01T12:02:56.902Z,25.90
2023-02-01T12:05:27.672Z,25.80
2023-02-01T12:08:13.480Z,25.70
2023-02-01T12:10:59.130Z,25.70
2023-02-01T12:13:39.856Z,25.60
2023-02-01T12:16:13.186Z,25.60
2023-02-01T12:18:44.091Z,25.60
2023-02-01T12:21:17.808Z,25.50
2023-02-01T12:23:50.373Z,25.40
2023-02-01T12:26:37.197Z,25.40
2023-02-01T12:29:08.556Z,25.40
2023-02-01T12:31:48.340Z,25.30
2023-02-01T12:34:16.005Z,25.20
2023-02-01T12:36:43.515Z,25.20
2023-02-01T12:39:23.010Z,25.20
2023-02-01T12:42:11.565Z,25.10
2023-02-01T12:44:39.117Z,25.10
2023-02-01T12:47:19.056Z,25.00
2023-02-01T12:49:49.341Z,25.00
2023-02-01T12:52:20.229Z,24.90
2023-02-01T12:55:09.646Z,24.90
2023-02-01T12:57:39.149Z,24.80
2023-02-01T13:00:06.873Z,24.80
2023-02-01T13:02:36.131Z,24.80
2023-02-01T13:05:20.861Z,24.80
2023-02-01T13:07:51.193Z,24.80
2023-02-01T13:10:22.793Z,24.70
2023-02-01T13:13:02.307Z,24.70
2023-02-01T13:15:32.091Z,24.70
2023-02-01T13:18:01.926Z,24.60
2023-02-01T13:20:38.767Z,24.60
2023-02-01T13:23:27.440Z,24.60
2023-02-01T13:25:55.465Z,24.50
2023-02-01T13:28:26.080Z,24.50
2023-02-01T13:31:03.029Z,24.50
2023-02-01T13:33:54.834Z,24.50
2023-02-01T13:36:29.308Z,24.40
2023-02-01T13:39:12.888Z,24.30
2023-02-01T13:41:45.021Z,24.40
2023-02-01T13:44:15.242Z,24.30
2023-02-01T13:46:43.936Z,24.30
2023-02-01T13:49:21.141Z,24.20
2023-02-01T13:51:50.792Z,24.10
2023-02-01T13:54:32.901Z,24.10
2023-02-01T13:57:01.466Z,24.00
2023-02-01T13:59:41.199Z,24.00
2023-02-01T14:02:26.801Z,24.00
2023-02-01T14:04:54.731Z,23.90
2023-02-01T14:07:23.601Z,23.90
2023-02-01T14:09:51.239Z,23.80
2023-02-01T14:12:38.264Z,23.80
2023-02-01T14:15:24.268Z,23.80
2023-02-01T14:17:52.512Z,23.80
2023-02-01T14:20:47.592Z,23.70
2023-02-01T14:23:22.577Z,23.70
2023-02-01T14:26:01.860Z,23.70
2023-02-01T14:28:30.596Z,23.60
2023-02-01T14:30:59.308Z,23.60
2023-02-01T14:33:28.532Z,23.50
2023-02-01T14:36:04.524Z,23.50
2023-02-01T14:38:34.331Z,23.40
2023-02-01T14:41:20.037Z,23.30
2023-02-01T14:43:52.215Z,23.30
2023-02-01T14:46:20.748Z,23.20
2023-02-01T14:48:49.095Z,23.20
2023-02-01T14:51:19.391Z,23.10
2023-02-01T14:53:48.078Z,23.10
2023-02-01T14:56:21.499Z,23.10
2023-02-01T14:58:49.962Z,23.00
2023-02-01T15:01:27.100Z,22.90
2023-02-01T15:04:01.100Z,22.90
2023-02-01T15:06:32.092Z,22.90
2023-02-01T15:09:04.775Z,22.80
2023-02-01T15:11:32.567Z,22.80
2023-02-01T15:14:02.939Z,22.80
2023-02-01T15:16:30.462Z,22.80
2023-02-01T15:19:18.114Z,22.70
2023-02-01T15:21:47.187Z,22.70
2023-02-01T15:24:28.274Z,22.60
2023-02-01T15:26:56.603Z,22.60
2023-02-01T15:29:29.270Z,22.60
2023-02-01T15:31:57.021Z,22.50
2023-02-01T15:34:24.633Z,22.40
2023-02-01T15:37:03.028Z,22.40
2023-02-01T15:39:32.925Z,22.30
2023-02-01T15:42:05.740Z,22.30
2023-02-01T15:44:33.345Z,22.20
2023-02-01T15:47:01.644Z,22.20
2023-02-01T15:49:29.449Z,22.20
2023-02-01T15:51:58.351Z,22.20
2023-02-01T15:55:04.470Z,22.20
2023-02-01T15:57:34.554Z,22.10
2023-02-01T16:00:04.697Z,22.10
2023-02-01T16:02:39.112Z,22.10
2023-02-01T16:05:26.287Z,22.00
2023-02-01T16:08:05.604Z,22.00
2023-02-01T16:10:40.053Z,22.00
2023-02-01T16:13:08.282Z,21.90
2023-02-01T16:15:35.815Z,21.90
2023-02-01T16:18:03.884Z,21.90
2023-02-01T16:20:32.397Z,21.80
2023-02-01T16:22:59.917Z,21.80
2023-02-01T16:25:27.503Z,21.80
2023-02-01T16:27:55.874Z,21.80
2023-02-01T16:30:26.399Z,21.80
2023-02-01T16:32:56.155Z,21.80
2023-02-01T16:35:26.866Z,21.70
2023-02-01T16:37:54.637Z,21.70
2023-02-01T16:40:25.612Z,21.60
2023-02-01T16:42:56.319Z,21.60
2023-02-01T16:45:25.034Z,21.60
2023-02-01T16:47:55.755Z,21.60
2023-02-01T16:50:24.668Z,21.60
2023-02-01T16:52:52.728Z,21.50
2023-02-01T16:55:23.100Z,21.50
2023-02-01T16:57:51.217Z,21.50
2023-02-01T17:00:25.303Z,21.50
2023-02-01T17:02:54.439Z,21.50
2023-02-01T17:05:22.641Z,21.50
2023-02-01T17:07:50.600Z,21.50
2023-02-01T17:10:34.526Z,21.50
2023-02-01T17:13:03.176Z,21.50
2023-02-01T17:15:35.114Z,21.50
2023-02-01T17:18:03.090Z,21.40
2023-02-01T17:20:33.233Z,21.40
2023-02-01T17:23:00.790Z,21.30
2023-02-01T17:25:29.119Z,21.30
2023-02-01T17:27:56.639Z,21.30
2023-02-01T17:30:25.096Z,21.20
2023-02-01T17:32:52.656Z,21.20
2023-02-01T17:35:25.234Z,21.20
2023-02-01T17:37:53.971Z,21.10
2023-02-01T17:40:21.478Z,21.10
2023-02-01T17:42:50.266Z,21.10
2023-02-01T17:45:21.913Z,21.10
2023-02-01T17:47:49.692Z,21.10
2023-02-01T17:50:18.201Z,21.10
2023-02-01T17:52:45.839Z,21.10
2023-02-01T17:55:22.874Z,21.10
2023-02-01T17:57:50.867Z,21.10
2023-02-01T18:00:18.790Z,21.10
2023-02-01T18:02:46.365Z,21.10
2023-02-01T18:05:20.008Z,21.10
2023-02-01T18:07:47.517Z,21.10
2023-02-01T18:10:15.092Z,21.10
2023-02-01T18:12:42.839Z,21.10
2023-02-01T18:15:22.143Z,21.10
2023-02-01T18:17:49.989Z,21.10
2023-02-01T18:20:18.560Z,21.10
2023-02-01T18:22:48.794Z,21.00
2023-02-01T18:25:17.975Z,21.00
2023-02-01T18:27:45.470Z,21.00
2023-02-01T18:30:13.465Z,21.10
2023-02-01T18:32:42.737Z,21.10
2023-02-01T18:35:20.924Z,21.20
2023-02-01T18:37:49.114Z,21.20
2023-02-01T18:40:18.594Z,21.30
2023-02-01T18:42:46.241Z,21.30
2023-02-01T18:45:34.737Z,21.30
2023-02-01T18:48:03.780Z,21.30
2023-02-01T18:50:33.150Z,21.30
2023-02-01T18:53:01.827Z,21.30
2023-02-01T18:55:31.451Z,21.30
2023-02-01T18:58:03.851Z,21.30
2023-02-01T19:00:31.371Z,21.30
2023-02-01T19:02:59.630Z,21.20
2023-02-01T19:05:27.752Z,21.20
2023-02-01T19:07:55.222Z,21.10
2023-02-01T19:10:23.610Z,21.10
2023-02-01T19:12:51.890Z,21.00
2023-02-01T19:15:19.681Z,21.00
2023-02-01T19:17:49.237Z,21.00
2023-02-01T19:20:18.270Z,20.90
2023-02-01T19:22:46.808Z,20.90
2023-02-01T19:25:15.458Z,20.90
2023-02-01T19:27:43.271Z,20.90
2023-02-01T19:30:12.744Z,20.80
2023-02-01T19:32:40.481Z,20.70
2023-02-01T19:35:09.617Z,20.70
2023-02-01T19:37:37.259Z,20.70
2023-02-01T19:40:04.943Z,20.60
2023-02-01T19:42:32.494Z,20.60
2023-02-01T19:45:00.107Z,20.50
2023-02-01T19:47:27.584Z,20.50
2023-02-01T19:49:56.210Z,20.50
2023-02-01T19:52:23.758Z,20.40
2023-02-01T19:54:51.268Z,20.40
2023-02-01T19:57:19.082Z,20.40
2023-02-01T19:59:46.599Z,20.40
2023-02-01T20:02:15.163Z,20.40
2023-02-01T20:04:42.738Z,20.30
2023-02-01T20:07:13.697Z,20.30
2023-02-01T20:09:44.509Z,20.30
2023-02-01T20:12:12.153Z,20.30
2023-02-01T20:14:40.193Z,20.30
2023-02-01T20:17:07.958Z,20.30
2023-02-01T20:19:35.487Z,20.30
2023-02-01T20:22:03.355Z,20.30
2023-02-01T20:24:30.810Z,20.30
2023-02-01T20:26:59.388Z,20.20
2023-02-01T20:29:27.908Z,20.20
2023-02-01T20:31:56.079Z,20.30
2023-02-01T20:34:23.615Z,20.30
2023-02-01T20:36:51.237Z,20.30
2023-02-01T20:39:19.659Z,20.30
2023-02-01T20:41:47.165Z,20.30
2023-02-01T20:44:16.490Z,20.20
2023-02-01T20:46:44.320Z,20.20
2023-02-01T20:49:12.835Z,20.20
2023-02-01T20:51:40.276Z,20.10
2023-02-01T20:54:08.165Z,20.10
2023-02-01T20:56:35.837Z,20.10
2023-02-01T20:59:03.458Z,20.10
2023-02-01T21:01:31.396Z,20.00
2023-02-01T21:03:59.001Z,20.00
2023-02-01T21:06:26.562Z,20.00
2023-02-01T21:08:54.225Z,20.00
2023-02-01T21:11:21.697Z,20.00
2023-02-01T21:13:51.859Z,19.90
2023-02-01T21:16:21.188Z,19.90
2023-02-01T21:18:52.365Z,19.90
2023-02-01T21:21:19.882Z,19.90
2023-02-01T21:23:48.933Z,19.90
2023-02-01T21:26:18.593Z,19.90
2023-02-01T21:28:47.450Z,20.00
2023-02-01T21:31:18.178Z,20.00
2023-02-01T21:33:48.735Z,20.00
2023-02-01T21:36:20.460Z,20.00
2023-02-01T21:38:52.468Z,20.00
2023-02-01T21:41:39.109Z,20.00
2023-02-01T21:44:07.734Z,20.00
2023-02-01T21:46:35.257Z,20.00
2023-02-01T21:49:05.489Z,20.00
2023-02-01T21:51:36.758Z,19.90
2023-02-01T21:54:05.128Z,19.90
2023-02-01T21:56:32.741Z,20.00
2023-02-01T21:59:00.294Z,20.00
2023-02-01T22:01:28.187Z,20.00
2023-02-01T22:03:55.770Z,20.00
2023-02-01T22:06:27.292Z,20.00
2023-02-01T22:08:55.015Z,19.90
2023-02-01T22:11:22.844Z,19.90
2023-02-01T22:13:50.447Z,20.00
2023-02-01T22:16:18.707Z,19.90
2023-02-01T22:18:47.094Z,19.90
2023-02-01T22:21:15.413Z,19.90
2023-02-01T22:23:43.007Z,19.90
2023-02-01T22:26:11.862Z,19.90
2023-02-01T22:28:40.532Z,20.00
2023-02-01T22:31:09.556Z,19.90
2023-02-01T22:33:37.237Z,20.00
2023-02-01T22:36:05.366Z,19.90
2023-02-01T22:38:33.635Z,20.00
2023-02-01T22:41:02.431Z,19.90
2023-02-01T22:43:30.261Z,19.90
2023-02-01T22:46:05.644Z,19.80
2023-02-01T22:48:38.629Z,19.80
2023-02-01T22:51:06.907Z,19.80
2023-02-01T22:53:34.615Z,19.80
2023-02-01T22:56:05.979Z,19.70
2023-02-01T22:58:36.194Z,19.70
2023-02-01T23:01:10.571Z,19.60
2023-02-01T23:03:38.546Z,19.60
2023-02-01T23:06:07.226Z,19.50
2023-02-01T23:08:35.653Z,19.50
2023-02-01T23:11:04.928Z,19.50
2023-02-01T23:13:33.139Z,19.50
2023-02-01T23:16:04.560Z,19.50
2023-02-01T23:18:32.162Z,19.50
2023-02-01T23:21:10.506Z,19.50
2023-02-01T23:23:38.064Z,19.50
2023-02-01T23:26:05.940Z,19.50
2023-02-01T23:28:33.591Z,19.50
2023-02-01T23:31:06.297Z,19.50
2023-02-01T23:33:33.891Z,19.40
2023-02-01T23:36:02.683Z,19.40
2023-02-01T23:38:30.524Z,19.40
2023-02-01T23:41:02.282Z,19.40
2023-02-01T23:43:48.233Z,19.40
2023-02-01T23:46:16.377Z,19.40
2023-02-01T23:48:44.344Z,19.40
2023-02-01T23:51:13.232Z,19.40
2023-02-01T23:53:41.516Z,19.30
2023-02-01T23:56:09.802Z,19.30
2023-02-01T23:58:38.091Z,19.30
